createdAt,value
2022-08-07T00:00:53.202Z,99691.34
2022-08-07T00:03:27.721Z,99682.41
2022-08-07T00:06:05.262Z,99659.28
2022-08-07T00:08:36.527Z,99670.06
2022-08-07T00:11:19.950Z,99678.84
2022-08-07T00:13:57.745Z,99616.28
2022-08-07T00:16:28.014Z,99675.03
2022-08-07T00:18:55.716Z,99679.28
2022-08-07T00:21:57.261Z,99578.84
2022-08-07T00:24:11.557Z,99688.66
2022-08-07T00:26:58.836Z,99669.09
2022-08-07T00:29:31.475Z,99654.56
2022-08-07T00:32:00.073Z,99684.38
2022-08-07T00:34:28.025Z,99668.78
2022-08-07T00:36:57.480Z,99669.09
2022-08-07T00:39:25.131Z,99657.41
2022-08-07T00:42:01.846Z,99659.00
2022-08-07T00:44:33.956Z,99586.06
2022-08-07T00:47:02.746Z,99660.84
2022-08-07T00:50:18.944Z,99675.84
2022-08-07T00:52:19.963Z,99656.56
2022-08-07T00:54:53.542Z,99650.59
2022-08-07T00:57:26.258Z,99645.50
2022-08-07T00:59:54.850Z,99656.13
2022-08-07T01:02:28.772Z,99573.56
2022-08-07T01:04:59.315Z,99672.13
2022-08-07T01:07:29.671Z,99666.19
2022-08-07T01:10:06.513Z,99583.91
2022-08-07T01:12:53.474Z,99657.81
2022-08-07T01:16:00.936Z,99673.84
2022-08-07T01:18:17.088Z,99632.13
2022-08-07T01:21:05.349Z,99672.13
2022-08-07T01:23:46.689Z,99675.03
2022-08-07T01:26:19.538Z,99665.88
2022-08-07T01:28:51.412Z,99529.88
2022-08-07T01:31:41.566Z,99671.53
2022-08-07T01:34:14.454Z,99669.97
2022-08-07T01:36:52.569Z,99673.78
2022-08-07T01:39:40.469Z,99675.63
2022-08-07T01:42:37.676Z,99591.44
2022-08-07T01:45:18.301Z,99654.50
2022-08-07T01:48:17.577Z,99649.13
2022-08-07T01:50:43.279Z,99652.94
2022-08-07T01:53:20.887Z,99599.72
2022-08-07T01:55:58.929Z,99653.94
2022-08-07T01:58:33.589Z,99652.81
2022-08-07T02:01:58.989Z,99621.31
2022-08-07T02:04:17.992Z,99674.50
2022-08-07T02:06:54.270Z,99668.72
2022-08-07T02:09:33.931Z,99664.75
2022-08-07T02:12:18.010Z,99662.22
2022-08-07T02:15:06.031Z,99641.34
2022-08-07T02:17:40.264Z,99658.00
2022-08-07T02:20:19.924Z,99654.19
2022-08-07T02:22:59.908Z,99648.91
2022-08-07T02:26:11.438Z,99632.06
2022-08-07T02:28:24.520Z,99647.69
2022-08-07T02:30:56.087Z,99646.56
2022-08-07T02:33:42.074Z,99651.09
2022-08-07T02:36:29.081Z,99647.75
2022-08-07T02:39:16.205Z,99651.06
2022-08-07T02:41:50.905Z,99612.69
2022-08-07T02:44:27.760Z,99651.31
2022-08-07T02:47:05.910Z,99621.19
2022-08-07T02:49:58.517Z,99647.25
2022-08-07T02:52:32.667Z,99644.28
2022-08-07T02:55:27.673Z,99636.88
2022-08-07T02:58:03.097Z,99643.22
2022-08-07T03:00:35.285Z,99536.66
2022-08-07T03:03:07.627Z,99652.13
2022-08-07T03:05:44.691Z,99640.16
2022-08-07T03:08:13.975Z,99656.13
2022-08-07T03:10:47.265Z,99651.63
2022-08-07T03:13:20.255Z,99648.63
2022-08-07T03:15:56.463Z,99656.53
2022-08-07T03:18:34.652Z,99651.91
2022-08-07T03:21:08.614Z,99635.63
2022-08-07T03:24:20.228Z,99671.53
2022-08-07T03:26:33.738Z,99669.88
2022-08-07T03:29:11.152Z,99672.59
2022-08-07T03:31:50.037Z,99654.03
2022-08-07T03:34:22.128Z,99632.72
2022-08-07T03:37:00.234Z,99619.78
2022-08-07T03:40:00.088Z,99675.41
2022-08-07T03:42:33.625Z,99670.94
2022-08-07T03:45:03.322Z,99686.06
2022-08-07T03:47:48.286Z,99629.19
2022-08-07T03:50:24.469Z,99673.75
2022-08-07T03:52:57.655Z,99680.31
2022-08-07T03:55:52.963Z,99649.38
2022-08-07T03:59:05.452Z,99686.56
2022-08-07T04:01:02.665Z,99686.16
2022-08-07T04:03:49.659Z,99664.72
2022-08-07T04:06:38.420Z,99682.13
2022-08-07T04:09:16.009Z,99673.00
2022-08-07T04:12:23.580Z,99638.22
2022-08-07T04:14:43.887Z,99616.34
2022-08-07T04:17:21.046Z,99688.56
2022-08-07T04:19:54.362Z,99676.88
2022-08-07T04:22:29.406Z,99685.09
2022-08-07T04:25:02.094Z,99686.28
2022-08-07T04:27:36.144Z,99672.38
2022-08-07T04:30:35.633Z,99686.53
2022-08-07T04:33:08.095Z,99692.72
2022-08-07T04:35:39.848Z,99682.56
2022-08-07T04:38:16.108Z,99697.22
2022-08-07T04:40:51.795Z,99694.78
2022-08-07T04:44:12.106Z,99699.81
2022-08-07T04:46:53.950Z,99698.56
2022-08-07T04:49:37.785Z,99699.97
2022-08-07T04:52:27.453Z,99672.78
2022-08-07T04:58:13.924Z,99690.75
2022-08-07T04:59:15.799Z,99701.84
2022-08-07T05:01:32.521Z,99709.66
2022-08-07T05:04:08.313Z,99711.28
2022-08-07T05:07:09.778Z,99715.31
2022-08-07T05:10:08.011Z,99712.78
2022-08-07T05:13:00.078Z,99716.38
2022-08-07T05:15:42.718Z,99707.13
2022-08-07T05:18:30.064Z,99653.22
2022-08-07T05:21:04.718Z,99704.00
2022-08-07T05:23:47.590Z,99681.25
2022-08-07T05:26:23.916Z,99706.56
2022-08-07T05:29:04.208Z,99698.94
2022-08-07T05:31:38.701Z,99696.19
2022-08-07T05:34:15.715Z,99580.47
2022-08-07T05:36:52.895Z,99697.72
2022-08-07T05:40:18.070Z,99680.34
2022-08-07T05:42:34.384Z,99699.81
2022-08-07T05:45:26.042Z,99699.69
2022-08-07T05:48:03.871Z,99697.69
2022-08-07T05:50:42.826Z,99692.66
2022-08-07T05:54:13.343Z,99652.16
2022-08-07T05:56:05.795Z,99702.13
2022-08-07T05:58:39.379Z,99703.69
2022-08-07T06:01:12.413Z,99686.59
2022-08-07T06:03:56.690Z,99636.19
2022-08-07T06:06:29.554Z,99647.03
2022-08-07T06:08:58.450Z,99643.81
2022-08-07T06:11:27.602Z,99686.34
2022-08-07T06:14:13.031Z,99675.94
2022-08-07T06:16:50.226Z,99691.78
2022-08-07T06:19:57.685Z,99679.00
2022-08-07T06:22:23.823Z,99684.56
2022-08-07T06:25:04.959Z,99691.84
2022-08-07T06:28:00.228Z,99630.84
2022-08-07T06:30:35.224Z,99681.56
2022-08-07T06:33:15.682Z,99685.16
2022-08-07T06:36:06.900Z,99690.88
2022-08-07T06:38:37.702Z,99714.56
2022-08-07T06:41:13.045Z,99686.09
2022-08-07T06:44:01.753Z,99696.88
2022-08-07T06:46:35.498Z,99637.44
2022-08-07T06:49:05.070Z,99698.56
2022-08-07T06:51:49.493Z,99698.59
2022-08-07T06:55:33.271Z,99692.38
2022-08-07T06:57:10.492Z,99666.44
2022-08-07T07:00:12.662Z,99646.91
2022-08-07T07:02:53.419Z,99697.03
2022-08-07T07:06:02.959Z,99683.34
2022-08-07T07:08:18.898Z,99687.56
2022-08-07T07:10:57.164Z,99689.75
2022-08-07T07:13:55.366Z,99638.66
2022-08-07T07:16:27.333Z,99705.38
2022-08-07T07:19:11.512Z,99721.72
2022-08-07T07:22:11.403Z,99727.22
2022-08-07T07:24:56.936Z,99696.59
2022-08-07T07:27:35.826Z,99722.06
2022-08-07T07:30:37.986Z,99706.06
2022-08-07T07:33:11.453Z,99640.84
2022-08-07T07:35:51.916Z,99701.13
2022-08-07T07:38:32.669Z,99695.25
2022-08-07T07:41:08.897Z,99613.63
2022-08-07T07:44:14.654Z,99698.91
2022-08-07T07:46:38.065Z,99692.00
2022-08-07T07:50:34.516Z,99676.84
2022-08-07T07:52:10.180Z,99698.94
2022-08-07T07:54:38.361Z,99694.00
2022-08-07T07:57:09.378Z,99707.16
2022-08-07T07:59:52.784Z,99699.97
2022-08-07T08:02:35.342Z,99644.44
2022-08-07T08:05:05.554Z,99699.97
2022-08-07T08:08:00.029Z,99696.25
2022-08-07T08:10:37.819Z,99635.56
2022-08-07T08:13:10.582Z,99684.22
2022-08-07T08:15:58.427Z,99550.81
2022-08-07T08:18:28.456Z,99636.31
2022-08-07T08:21:00.693Z,99691.56
2022-08-07T08:23:52.101Z,99610.88
2022-08-07T08:26:40.342Z,99660.72
2022-08-07T08:29:09.045Z,99674.34
2022-08-07T08:31:58.904Z,99686.59
2022-08-07T08:34:39.229Z,99682.16
2022-08-07T08:38:01.419Z,99606.53
2022-08-07T08:39:59.198Z,99656.56
2022-08-07T08:42:26.628Z,99671.56
2022-08-07T08:45:16.963Z,99647.56
2022-08-07T08:48:05.197Z,99661.78
2022-08-07T08:50:40.186Z,99637.03
2022-08-07T08:53:10.768Z,99645.44
2022-08-07T08:55:54.730Z,99634.13
2022-08-07T08:58:54.636Z,99641.88
2022-08-07T09:02:01.664Z,99638.75
2022-08-07T09:04:54.671Z,99634.75
2022-08-07T09:07:46.157Z,99619.06
2022-08-07T09:10:29.463Z,99632.69
2022-08-07T09:13:14.757Z,99641.19
2022-08-07T09:16:23.002Z,99642.38
2022-08-07T09:18:58.399Z,99636.91
2022-08-07T09:21:33.775Z,99632.78
2022-08-07T09:24:58.949Z,99541.47
2022-08-07T09:28:00.810Z,99630.13
2022-08-07T09:30:54.286Z,99526.47
2022-08-07T09:33:57.445Z,99620.06
2022-08-07T09:36:37.079Z,99617.78
2022-08-07T09:39:52.913Z,99621.00
2022-08-07T09:42:33.243Z,99596.84
2022-08-07T09:47:20.230Z,99618.97
2022-08-07T09:48:14.692Z,99610.59
2022-08-07T09:51:26.106Z,99510.16
2022-08-07T09:54:02.370Z,99595.13
2022-08-07T09:56:58.875Z,99606.78
2022-08-07T09:59:44.588Z,99611.16
2022-08-07T10:02:55.155Z,99589.28
2022-08-07T10:06:00.619Z,99585.75
2022-08-07T10:08:38.095Z,99594.72
2022-08-07T10:12:02.036Z,99599.44
2022-08-07T10:14:35.454Z,99589.22
2022-08-07T10:17:33.801Z,99586.31
2022-08-07T10:20:50.175Z,99586.97
2022-08-07T10:24:06.070Z,99591.91
2022-08-07T10:27:12.419Z,99595.50
2022-08-07T10:30:12.404Z,99599.31
2022-08-07T10:32:53.353Z,99597.19
2022-08-07T10:35:55.896Z,99580.31
2022-08-07T10:38:48.755Z,99598.72
2022-08-07T10:41:46.968Z,99582.91
2022-08-07T10:44:37.568Z,99586.69
2022-08-07T10:47:18.733Z,99570.28
2022-08-07T10:50:15.068Z,99556.47
2022-08-07T10:53:05.239Z,99563.66
2022-08-07T10:56:02.289Z,99560.94
2022-08-07T10:58:59.388Z,99563.25
2022-08-07T11:01:51.026Z,99561.16
2022-08-07T11:04:52.674Z,99560.72
2022-08-07T11:07:58.651Z,99566.38
2022-08-07T11:10:32.088Z,99556.50
2022-08-07T11:14:41.966Z,99559.88
2022-08-07T11:16:30.618Z,99544.09
2022-08-07T11:19:11.693Z,99547.66
2022-08-07T11:21:45.226Z,99562.81
2022-08-07T11:24:24.356Z,99394.81
2022-08-07T11:27:02.076Z,99460.72
2022-08-07T11:30:10.006Z,99544.28
2022-08-07T11:33:02.751Z,99544.28
2022-08-07T11:36:10.011Z,99537.97
2022-08-07T11:39:01.849Z,99440.06
2022-08-07T11:42:02.439Z,99551.91
2022-08-07T11:44:36.967Z,99550.84
2022-08-07T11:47:23.364Z,99576.31
2022-08-07T11:50:57.866Z,99584.44
2022-08-07T11:53:56.981Z,99593.22
2022-08-07T11:56:55.315Z,99590.81
2022-08-07T12:00:10.534Z,99581.31
2022-08-07T12:02:52.111Z,99588.84
2022-08-07T12:05:47.253Z,99591.97
2022-08-07T12:08:34.388Z,99433.03
2022-08-07T12:11:21.156Z,99520.44
2022-08-07T12:14:04.439Z,99601.94
2022-08-07T12:16:41.296Z,99599.72
2022-08-07T12:19:22.120Z,99613.75
2022-08-07T12:22:38.090Z,99618.72
2022-08-07T12:26:05.495Z,99624.41
2022-08-07T12:28:45.156Z,99539.03
2022-08-07T12:31:52.779Z,99630.28
2022-08-07T12:34:29.689Z,99621.44
2022-08-07T12:36:59.777Z,99582.56
2022-08-07T12:39:43.328Z,99653.34
2022-08-07T12:42:16.013Z,99670.19
2022-08-07T12:44:46.977Z,99664.66
2022-08-07T12:47:37.696Z,99661.09
2022-08-07T12:50:39.592Z,99672.25
2022-08-07T12:53:22.703Z,99681.06
2022-08-07T12:56:16.269Z,99611.22
2022-08-07T12:58:53.002Z,99667.63
2022-08-07T13:01:32.156Z,99677.13
2022-08-07T13:04:49.227Z,99683.09
2022-08-07T13:08:14.414Z,99681.72
2022-08-07T13:11:01.110Z,99692.47
2022-08-07T13:13:46.762Z,99674.84
2022-08-07T13:16:39.806Z,99706.50
2022-08-07T13:19:45.843Z,99707.97
2022-08-07T13:22:33.511Z,99704.97
2022-08-07T13:25:06.856Z,99702.41
2022-08-07T13:28:10.649Z,99691.28
2022-08-07T13:30:41.257Z,99677.59
2022-08-07T13:34:32.032Z,99704.72
2022-08-07T13:36:27.674Z,99682.41
2022-08-07T13:39:05.142Z,99698.59
2022-08-07T13:41:48.615Z,99707.94
2022-08-07T13:44:26.460Z,99699.66
2022-08-07T13:46:59.469Z,99698.16
2022-08-07T13:50:33.800Z,99677.22
2022-08-07T13:52:26.446Z,99684.66
2022-08-07T13:55:19.185Z,99609.31
2022-08-07T13:58:27.870Z,99707.66
2022-08-07T14:01:08.894Z,99616.50
2022-08-07T14:04:05.611Z,99696.31
2022-08-07T14:06:34.972Z,99707.03
2022-08-07T14:09:04.646Z,99685.53
2022-08-07T14:11:53.196Z,99628.25
2022-08-07T14:14:41.806Z,99600.50
2022-08-07T14:18:12.612Z,99609.84
2022-08-07T14:20:40.993Z,99705.31
2022-08-07T14:24:00.241Z,99613.44
2022-08-07T14:26:31.956Z,99688.69
2022-08-07T14:29:05.995Z,99671.56
2022-08-07T14:31:56.499Z,99701.94
2022-08-07T14:34:30.111Z,99664.59
2022-08-07T14:37:03.659Z,99542.94
2022-08-07T14:40:15.886Z,99690.06
2022-08-07T14:42:31.401Z,99618.03
2022-08-07T14:45:21.381Z,99580.72
2022-08-07T14:47:53.079Z,99688.84
2022-08-07T14:50:28.201Z,99643.03
2022-08-07T14:52:57.290Z,99567.97
2022-08-07T14:58:28.190Z,99569.00
2022-08-07T15:00:59.126Z,99702.56
2022-08-07T15:03:51.641Z,99646.94
2022-08-07T15:06:23.497Z,99696.63
2022-08-07T15:08:54.561Z,99695.28
2022-08-07T15:11:53.774Z,99701.25
2022-08-07T15:14:25.383Z,99687.53
2022-08-07T15:17:04.306Z,99673.16
2022-08-07T15:25:25.712Z,99700.97
2022-08-07T15:28:34.999Z,99686.72
2022-08-07T15:31:05.640Z,99726.59
2022-08-07T15:33:36.793Z,99734.56
2022-08-07T15:36:07.967Z,99710.16
2022-08-07T15:42:45.627Z,99705.91
2022-08-07T15:44:23.796Z,99691.44
2022-08-07T15:50:06.035Z,99702.28
2022-08-07T15:52:38.206Z,99690.94
2022-08-07T15:55:11.423Z,99704.50
2022-08-07T15:57:48.831Z,99610.28
2022-08-07T16:00:31.220Z,99704.47
2022-08-07T16:03:05.242Z,99695.28
2022-08-07T16:05:34.844Z,99526.06
2022-08-07T16:08:31.178Z,99627.19
2022-08-07T16:11:26.831Z,99693.13
2022-08-07T16:14:19.172Z,99695.31
2022-08-07T16:18:02.283Z,99695.44
2022-08-07T16:20:38.708Z,99707.66
2022-08-07T16:23:53.475Z,99719.28
2022-08-07T16:26:30.709Z,99729.56
2022-08-07T16:30:11.880Z,99716.97
2022-08-07T16:32:32.988Z,99750.47
2022-08-07T16:35:52.377Z,99758.84
2022-08-07T16:39:00.591Z,99751.16
2022-08-07T16:42:04.693Z,99754.16
2022-08-07T16:46:47.064Z,99756.78
2022-08-07T16:49:04.379Z,99757.00
2022-08-07T16:52:51.052Z,99765.06
2022-08-07T16:55:47.319Z,99760.59
2022-08-07T16:59:10.639Z,99771.41
2022-08-07T17:02:14.169Z,99773.19
2022-08-07T17:06:02.414Z,99774.50
2022-08-07T17:08:10.943Z,99766.84
2022-08-07T17:10:54.644Z,99773.81
2022-08-07T17:13:41.652Z,99774.97
2022-08-07T17:16:37.952Z,99775.13
2022-08-07T17:20:02.825Z,99787.06
2022-08-07T17:22:30.051Z,99758.06
2022-08-07T17:25:13.288Z,99784.25
2022-08-07T17:27:58.039Z,99793.84
2022-08-07T17:30:35.713Z,99787.34
2022-08-07T17:34:10.229Z,99801.16
2022-08-07T17:36:29.028Z,99816.56
2022-08-07T17:39:57.868Z,99789.22
2022-08-07T17:42:59.898Z,99808.84
2022-08-07T17:45:35.161Z,99791.81
2022-08-07T17:48:10.395Z,99803.28
2022-08-07T17:51:21.677Z,99810.75
2022-08-07T17:54:39.681Z,99812.91
2022-08-07T17:57:59.188Z,99809.63
2022-08-07T18:00:34.120Z,99739.09
2022-08-07T18:03:21.130Z,99821.53
2022-08-07T18:06:06.491Z,99812.91
2022-08-07T18:09:01.824Z,99793.16
2022-08-07T18:12:16.287Z,99806.53
2022-08-07T18:14:31.809Z,99756.91
2022-08-07T18:18:46.500Z,99804.84
2022-08-07T18:21:09.542Z,99706.94
2022-08-07T18:23:46.678Z,99820.22
2022-08-07T18:27:17.270Z,99827.19
2022-08-07T18:30:08.019Z,99828.03
2022-08-07T18:33:12.199Z,99828.63
2022-08-07T18:36:18.030Z,99824.66
2022-08-07T18:40:06.631Z,99840.41
2022-08-07T18:42:13.092Z,99835.72
2022-08-07T18:45:43.112Z,99834.72
2022-08-07T18:50:05.819Z,99833.88
2022-08-07T18:52:37.506Z,99830.47
2022-08-07T18:54:49.594Z,99827.19
2022-08-07T18:57:37.083Z,99823.53
2022-08-07T19:00:33.420Z,99828.03
2022-08-07T19:03:15.993Z,99836.72
2022-08-07T19:06:08.343Z,99851.19
2022-08-07T19:11:15.469Z,99861.16
2022-08-07T19:14:08.037Z,99856.88
2022-08-07T19:17:07.747Z,99859.44
2022-08-07T19:19:48.962Z,99847.38
2022-08-07T19:22:31.181Z,99856.03
2022-08-07T19:25:06.567Z,99851.63
2022-08-07T19:28:58.489Z,99845.50
2022-08-07T19:31:00.297Z,99832.59
2022-08-07T19:33:35.044Z,99830.75
2022-08-07T19:38:34.237Z,99789.53
2022-08-07T19:41:02.811Z,99853.59
2022-08-07T19:43:48.737Z,99853.78
2022-08-07T19:46:26.698Z,99857.59
2022-08-07T19:49:03.481Z,99849.09
2022-08-07T19:51:52.091Z,99845.66
2022-08-07T19:54:35.150Z,99792.56
2022-08-07T19:58:04.472Z,99747.97
2022-08-07T20:00:10.402Z,99838.44
2022-08-07T20:02:51.844Z,99853.63
2022-08-07T20:05:59.666Z,99806.44
2022-08-07T20:08:32.669Z,99789.84
2022-08-07T20:11:03.948Z,99813.31
2022-08-07T20:13:53.978Z,99847.09
2022-08-07T20:16:34.967Z,99843.97
2022-08-07T20:19:09.929Z,99848.22
2022-08-07T20:21:47.602Z,99776.34
2022-08-07T20:24:22.132Z,99849.22
2022-08-07T20:26:54.884Z,99866.56
2022-08-07T20:29:47.019Z,99856.19
2022-08-07T20:32:27.132Z,99863.84
2022-08-07T20:35:11.380Z,99855.91
2022-08-07T20:37:59.195Z,99863.03
2022-08-07T20:40:34.646Z,99854.47
2022-08-07T20:43:14.852Z,99733.63
2022-08-07T20:46:25.666Z,99862.00
2022-08-07T20:48:58.012Z,99839.66
2022-08-07T20:51:30.832Z,99851.34
2022-08-07T20:54:12.237Z,99849.78
2022-08-07T20:56:48.203Z,99844.78
2022-08-07T21:00:05.438Z,99846.22
2022-08-07T21:02:35.193Z,99826.00
2022-08-07T21:05:16.261Z,99780.25
2022-08-07T21:07:49.586Z,99839.38
2022-08-07T21:10:39.292Z,99863.91
2022-08-07T21:13:12.627Z,99819.75
2022-08-07T21:16:00.005Z,99833.66
2022-08-07T21:18:34.206Z,99832.94
2022-08-07T21:21:04.443Z,99774.13
2022-08-07T21:23:50.237Z,99821.41
2022-08-07T21:26:24.772Z,99776.13
2022-08-07T21:29:03.265Z,99847.19
2022-08-07T21:32:46.823Z,99856.00
2022-08-07T21:35:06.864Z,99856.00
2022-08-07T21:38:03.605Z,99859.97
2022-08-07T21:40:41.733Z,99864.13
2022-08-07T21:43:14.211Z,99860.59
2022-08-07T21:46:08.153Z,99859.00
2022-08-07T21:48:57.541Z,99852.38
2022-08-07T21:51:51.233Z,99855.78
2022-08-07T21:54:26.444Z,99865.19
2022-08-07T21:57:30.831Z,99858.41
2022-08-07T22:00:22.025Z,99875.88
2022-08-07T22:03:31.414Z,99871.47
2022-08-07T22:06:07.256Z,99874.03
2022-08-07T22:08:59.991Z,99875.59
2022-08-07T22:11:30.600Z,99880.72
2022-08-07T22:14:23.830Z,99843.88
2022-08-07T22:17:05.906Z,99880.88
2022-08-07T22:20:04.090Z,99881.13
2022-08-07T22:22:44.755Z,99869.66
2022-08-07T22:25:45.589Z,99881.13
2022-08-07T22:28:31.130Z,99882.13
2022-08-07T22:31:00.705Z,99886.50
2022-08-07T22:33:56.728Z,99853.69
2022-08-07T22:37:02.236Z,99877.09
2022-08-07T22:39:53.518Z,99879.19
2022-08-07T22:42:29.574Z,99880.56
2022-08-07T22:45:02.291Z,99873.63
2022-08-07T22:47:49.405Z,99878.00
2022-08-07T22:50:43.765Z,99875.56
2022-08-07T22:54:07.500Z,99866.75
2022-08-07T22:57:16.995Z,99873.16
2022-08-07T23:00:06.746Z,99869.69
2022-08-07T23:02:56.209Z,99788.63
2022-08-07T23:06:09.606Z,99874.19
2022-08-07T23:08:58.456Z,99883.84
2022-08-07T23:11:59.006Z,99872.00
2022-08-07T23:14:48.545Z,99891.06
2022-08-07T23:17:41.801Z,99897.34
2022-08-07T23:20:53.248Z,99896.28
2022-08-07T23:24:05.534Z,99895.34
2022-08-07T23:26:50.383Z,99895.47
2022-08-07T23:29:43.610Z,99878.16
2022-08-07T23:34:34.287Z,99893.78
2022-08-07T23:36:05.573Z,99894.50
2022-08-07T23:38:57.052Z,99883.13
2022-08-07T23:42:05.152Z,99890.91
2022-08-07T23:44:41.858Z,99895.91
2022-08-07T23:47:23.053Z,99889.16
2022-08-07T23:50:16.358Z,99902.22
2022-08-07T23:53:06.585Z,99880.09
2022-08-07T23:55:53.349Z,99895.50
2022-08-07T23:58:51.934Z,99885.69
